sensor_id;sensor_type;location;lat;lon;timestamp;P1;durP1;ratioP1;P2;durP2;ratioP2
72335;SDS011;62171;48.446;8.834;2022-09-09T00:01:54;4.18;;;1.50;;
72335;SDS011;62171;48.446;8.834;2022-09-09T00:04:36;5.47;;;2.05;;
72335;SDS011;62171;48.446;8.834;2022-09-09T00:07:10;1.55;;;1.15;;
72335;SDS011;62171;48.446;8.834;2022-09-09T00:12:39;3.33;;;1.45;;
72335;SDS011;62171;48.446;8.834;2022-09-09T00:17:51;3.80;;;1.10;;
72335;SDS011;62171;48.446;8.834;2022-09-09T00:20:45;5.45;;;1.65;;
72335;SDS011;62171;48.446;8.834;2022-09-09T00:23:12;3.17;;;1.20;;
72335;SDS011;62171;48.446;8.834;2022-09-09T00:30:57;3.83;;;1.40;;
72335;SDS011;62171;48.446;8.834;2022-09-09T00:33:26;1.30;;;1.00;;
72335;SDS011;62171;48.446;8.834;2022-09-09T00:35:58;2.72;;;1.38;;
72335;SDS011;62171;48.446;8.834;2022-09-09T00:38:35;2.17;;;1.40;;
72335;SDS011;62171;48.446;8.834;2022-09-09T00:44:33;3.40;;;1.20;;
72335;SDS011;62171;48.446;8.834;2022-09-09T00:52:39;1.80;;;1.17;;
72335;SDS011;62171;48.446;8.834;2022-09-09T00:58:00;4.47;;;1.48;;
72335;SDS011;62171;48.446;8.834;2022-09-09T01:00:35;3.05;;;1.50;;
72335;SDS011;62171;48.446;8.834;2022-09-09T01:03:20;2.13;;;1.30;;
72335;SDS011;62171;48.446;8.834;2022-09-09T01:11:43;2.45;;;1.40;;
72335;SDS011;62171;48.446;8.834;2022-09-09T01:17:00;2.38;;;1.40;;
72335;SDS011;62171;48.446;8.834;2022-09-09T01:19:44;2.50;;;1.48;;
72335;SDS011;62171;48.446;8.834;2022-09-09T01:24:48;4.85;;;1.50;;
72335;SDS011;62171;48.446;8.834;2022-09-09T01:27:16;1.70;;;1.23;;
72335;SDS011;62171;48.446;8.834;2022-09-09T01:29:43;2.25;;;1.70;;
72335;SDS011;62171;48.446;8.834;2022-09-09T01:35:04;2.45;;;1.40;;
72335;SDS011;62171;48.446;8.834;2022-09-09T01:37:32;7.18;;;2.00;;
72335;SDS011;62171;48.446;8.834;2022-09-09T01:39:58;3.72;;;1.38;;
72335;SDS011;62171;48.446;8.834;2022-09-09T01:42:23;4.13;;;1.42;;
72335;SDS011;62171;48.446;8.834;2022-09-09T01:44:48;3.78;;;1.52;;
72335;SDS011;62171;48.446;8.834;2022-09-09T01:47:14;2.70;;;1.70;;
72335;SDS011;62171;48.446;8.834;2022-09-09T01:49:40;3.85;;;1.50;;
72335;SDS011;62171;48.446;8.834;2022-09-09T01:52:05;2.05;;;1.40;;
72335;SDS011;62171;48.446;8.834;2022-09-09T01:54:31;5.68;;;1.58;;
72335;SDS011;62171;48.446;8.834;2022-09-09T02:04:45;2.67;;;1.50;;
72335;SDS011;62171;48.446;8.834;2022-09-09T02:09:57;2.20;;;1.40;;
72335;SDS011;62171;48.446;8.834;2022-09-09T02:12:33;3.88;;;1.60;;
72335;SDS011;62171;48.446;8.834;2022-09-09T02:15:02;2.58;;;1.65;;
72335;SDS011;62171;48.446;8.834;2022-09-09T02:17:33;5.00;;;2.17;;
72335;SDS011;62171;48.446;8.834;2022-09-09T02:20:05;4.65;;;1.60;;
72335;SDS011;62171;48.446;8.834;2022-09-09T02:22:34;6.80;;;1.77;;
72335;SDS011;62171;48.446;8.834;2022-09-09T02:25:05;4.00;;;1.38;;
72335;SDS011;62171;48.446;8.834;2022-09-09T02:27:32;3.60;;;1.60;;
72335;SDS011;62171;48.446;8.834;2022-09-09T02:29:58;4.05;;;1.67;;
72335;SDS011;62171;48.446;8.834;2022-09-09T02:32:27;1.92;;;1.42;;
72335;SDS011;62171;48.446;8.834;2022-09-09T02:35:00;3.50;;;1.35;;
72335;SDS011;62171;48.446;8.834;2022-09-09T02:37:32;2.35;;;1.25;;
72335;SDS011;62171;48.446;8.834;2022-09-09T02:40:04;3.10;;;1.60;;
72335;SDS011;62171;48.446;8.834;2022-09-09T02:42:31;2.85;;;1.60;;
72335;SDS011;62171;48.446;8.834;2022-09-09T02:50:54;4.32;;;1.40;;
72335;SDS011;62171;48.446;8.834;2022-09-09T02:53:26;3.63;;;1.20;;
72335;SDS011;62171;48.446;8.834;2022-09-09T02:56:04;3.60;;;1.50;;
72335;SDS011;62171;48.446;8.834;2022-09-09T02:58:32;2.15;;;1.42;;
72335;SDS011;62171;48.446;8.834;2022-09-09T03:00:58;2.80;;;1.45;;
72335;SDS011;62171;48.446;8.834;2022-09-09T03:03:26;5.57;;;1.40;;
72335;SDS011;62171;48.446;8.834;2022-09-09T03:05:52;3.42;;;1.80;;
72335;SDS011;62171;48.446;8.834;2022-09-09T03:08:17;2.88;;;1.77;;
72335;SDS011;62171;48.446;8.834;2022-09-09T03:10:43;2.83;;;1.33;;
72335;SDS011;62171;48.446;8.834;2022-09-09T03:13:08;3.42;;;1.70;;
72335;SDS011;62171;48.446;8.834;2022-09-09T03:15:33;5.88;;;1.63;;
72335;SDS011;62171;48.446;8.834;2022-09-09T03:18:00;3.47;;;1.38;;
72335;SDS011;62171;48.446;8.834;2022-09-09T03:20:26;3.97;;;1.40;;
72335;SDS011;62171;48.446;8.834;2022-09-09T03:22:53;3.38;;;1.38;;
72335;SDS011;62171;48.446;8.834;2022-09-09T03:25:19;3.88;;;1.50;;
72335;SDS011;62171;48.446;8.834;2022-09-09T03:27:44;3.88;;;1.63;;
72335;SDS011;62171;48.446;8.834;2022-09-09T03:30:10;5.47;;;1.42;;
72335;SDS011;62171;48.446;8.834;2022-09-09T03:32:35;1.77;;;1.20;;
72335;SDS011;62171;48.446;8.834;2022-09-09T03:35:01;3.33;;;1.48;;
72335;SDS011;62171;48.446;8.834;2022-09-09T03:37:26;5.05;;;1.65;;
72335;SDS011;62171;48.446;8.834;2022-09-09T03:39:52;3.17;;;1.48;;
72335;SDS011;62171;48.446;8.834;2022-09-09T03:42:19;1.95;;;1.38;;
72335;SDS011;62171;48.446;8.834;2022-09-09T03:44:45;4.13;;;1.67;;
72335;SDS011;62171;48.446;8.834;2022-09-09T03:47:18;2.13;;;1.70;;
72335;SDS011;62171;48.446;8.834;2022-09-09T03:49:45;2.28;;;1.70;;
72335;SDS011;62171;48.446;8.834;2022-09-09T03:52:10;2.67;;;1.35;;
72335;SDS011;62171;48.446;8.834;2022-09-09T03:54:36;2.13;;;1.40;;
72335;SDS011;62171;48.446;8.834;2022-09-09T03:57:01;3.63;;;1.50;;
72335;SDS011;62171;48.446;8.834;2022-09-09T03:59:27;3.28;;;1.55;;
72335;SDS011;62171;48.446;8.834;2022-09-09T04:01:52;3.85;;;1.38;;
72335;SDS011;62171;48.446;8.834;2022-09-09T04:04:19;2.55;;;1.50;;
72335;SDS011;62171;48.446;8.834;2022-09-09T04:06:45;1.67;;;1.30;;
72335;SDS011;62171;48.446;8.834;2022-09-09T04:09:13;1.92;;;1.42;;
72335;SDS011;62171;48.446;8.834;2022-09-09T04:11:38;5.38;;;1.40;;
72335;SDS011;62171;48.446;8.834;2022-09-09T04:14:04;2.50;;;1.40;;
72335;SDS011;62171;48.446;8.834;2022-09-09T04:16:31;1.65;;;1.48;;
72335;SDS011;62171;48.446;8.834;2022-09-09T04:18:57;2.83;;;1.20;;
72335;SDS011;62171;48.446;8.834;2022-09-09T04:21:24;3.13;;;1.20;;
72335;SDS011;62171;48.446;8.834;2022-09-09T04:23:50;5.03;;;1.77;;
72335;SDS011;62171;48.446;8.834;2022-09-09T04:26:16;3.28;;;1.35;;
72335;SDS011;62171;48.446;8.834;2022-09-09T04:28:41;3.13;;;1.33;;
72335;SDS011;62171;48.446;8.834;2022-09-09T04:31:08;2.95;;;1.60;;
72335;SDS011;62171;48.446;8.834;2022-09-09T04:33:36;1.85;;;1.40;;
72335;SDS011;62171;48.446;8.834;2022-09-09T04:36:02;6.47;;;1.60;;
72335;SDS011;62171;48.446;8.834;2022-09-09T04:38:27;3.50;;;1.42;;
72335;SDS011;62171;48.446;8.834;2022-09-09T04:40:53;3.60;;;1.55;;
72335;SDS011;62171;48.446;8.834;2022-09-09T04:43:19;4.20;;;1.70;;
72335;SDS011;62171;48.446;8.834;2022-09-09T04:45:49;3.30;;;1.50;;
72335;SDS011;62171;48.446;8.834;2022-09-09T04:48:16;4.00;;;1.50;;
72335;SDS011;62171;48.446;8.834;2022-09-09T04:50:42;4.68;;;1.38;;
72335;SDS011;62171;48.446;8.834;2022-09-09T04:53:07;4.30;;;1.70;;
72335;SDS011;62171;48.446;8.834;2022-09-09T04:55:33;3.40;;;1.52;;
72335;SDS011;62171;48.446;8.834;2022-09-09T04:58:06;3.58;;;1.63;;
72335;SDS011;62171;48.446;8.834;2022-09-09T05:00:33;2.20;;;1.60;;
72335;SDS011;62171;48.446;8.834;2022-09-09T05:03:04;5.57;;;1.58;;
72335;SDS011;62171;48.446;8.834;2022-09-09T05:05:30;3.03;;;1.50;;
72335;SDS011;62171;48.446;8.834;2022-09-09T05:08:03;3.70;;;1.60;;
72335;SDS011;62171;48.446;8.834;2022-09-09T05:10:30;1.83;;;1.38;;
72335;SDS011;62171;48.446;8.834;2022-09-09T05:12:56;1.90;;;1.70;;
72335;SDS011;62171;48.446;8.834;2022-09-09T05:15:21;3.90;;;1.70;;
72335;SDS011;62171;48.446;8.834;2022-09-09T05:17:47;3.72;;;1.40;;
72335;SDS011;62171;48.446;8.834;2022-09-09T05:20:12;3.17;;;1.38;;
72335;SDS011;62171;48.446;8.834;2022-09-09T05:22:38;3.03;;;1.65;;
72335;SDS011;62171;48.446;8.834;2022-09-09T05:25:03;3.80;;;1.63;;
72335;SDS011;62171;48.446;8.834;2022-09-09T05:27:29;1.88;;;1.33;;
72335;SDS011;62171;48.446;8.834;2022-09-09T05:29:56;1.63;;;1.20;;
72335;SDS011;62171;48.446;8.834;2022-09-09T05:32:22;7.20;;;1.85;;
72335;SDS011;62171;48.446;8.834;2022-09-09T05:34:47;2.95;;;1.45;;
72335;SDS011;62171;48.446;8.834;2022-09-09T05:37:13;2.40;;;1.20;;
72335;SDS011;62171;48.446;8.834;2022-09-09T05:39:38;2.10;;;1.40;;
72335;SDS011;62171;48.446;8.834;2022-09-09T05:42:04;1.73;;;1.30;;
72335;SDS011;62171;48.446;8.834;2022-09-09T05:44:30;2.85;;;2.10;;
72335;SDS011;62171;48.446;8.834;2022-09-09T05:46:55;2.80;;;1.35;;
72335;SDS011;62171;48.446;8.834;2022-09-09T05:49:21;3.60;;;1.80;;
72335;SDS011;62171;48.446;8.834;2022-09-09T05:51:46;2.28;;;1.40;;
72335;SDS011;62171;48.446;8.834;2022-09-09T05:54:12;4.65;;;1.48;;
72335;SDS011;62171;48.446;8.834;2022-09-09T05:56:40;4.20;;;1.50;;
72335;SDS011;62171;48.446;8.834;2022-09-09T05:59:06;2.85;;;1.73;;
72335;SDS011;62171;48.446;8.834;2022-09-09T06:01:32;2.60;;;1.42;;
72335;SDS011;62171;48.446;8.834;2022-09-09T06:04:00;4.72;;;1.60;;
72335;SDS011;62171;48.446;8.834;2022-09-09T06:06:26;3.88;;;1.42;;
72335;SDS011;62171;48.446;8.834;2022-09-09T06:08:56;2.75;;;1.23;;
72335;SDS011;62171;48.446;8.834;2022-09-09T06:11:26;4.32;;;1.30;;
72335;SDS011;62171;48.446;8.834;2022-09-09T06:13:55;3.88;;;1.33;;
72335;SDS011;62171;48.446;8.834;2022-09-09T06:16:22;2.35;;;1.60;;
72335;SDS011;62171;48.446;8.834;2022-09-09T06:18:49;3.92;;;1.30;;
72335;SDS011;62171;48.446;8.834;2022-09-09T06:21:16;4.72;;;1.60;;
72335;SDS011;62171;48.446;8.834;2022-09-09T06:23:43;3.28;;;1.15;;
72335;SDS011;62171;48.446;8.834;2022-09-09T06:26:14;1.80;;;1.15;;
72335;SDS011;62171;48.446;8.834;2022-09-09T06:28:43;3.00;;;1.30;;
72335;SDS011;62171;48.446;8.834;2022-09-09T06:31:11;2.63;;;1.17;;
72335;SDS011;62171;48.446;8.834;2022-09-09T06:33:38;2.33;;;1.38;;
72335;SDS011;62171;48.446;8.834;2022-09-09T06:36:07;3.40;;;1.90;;
72335;SDS011;62171;48.446;8.834;2022-09-09T06:38:36;4.05;;;1.90;;
72335;SDS011;62171;48.446;8.834;2022-09-09T06:41:01;5.07;;;2.35;;
72335;SDS011;62171;48.446;8.834;2022-09-09T06:43:27;5.00;;;3.00;;
72335;SDS011;62171;48.446;8.834;2022-09-09T06:45:54;6.40;;;4.07;;
72335;SDS011;62171;48.446;8.834;2022-09-09T06:48:28;11.48;;;7.25;;
72335;SDS011;62171;48.446;8.834;2022-09-09T06:53:28;14.38;;;10.00;;
72335;SDS011;62171;48.446;8.834;2022-09-09T06:55:54;14.02;;;7.80;;
72335;SDS011;62171;48.446;8.834;2022-09-09T06:58:19;5.53;;;2.88;;
72335;SDS011;62171;48.446;8.834;2022-09-09T07:00:47;3.60;;;2.30;;
72335;SDS011;62171;48.446;8.834;2022-09-09T07:03:12;4.38;;;1.50;;
72335;SDS011;62171;48.446;8.834;2022-09-09T07:05:38;3.58;;;1.20;;
72335;SDS011;62171;48.446;8.834;2022-09-09T07:08:04;3.53;;;1.40;;
72335;SDS011;62171;48.446;8.834;2022-09-09T07:10:29;3.65;;;1.50;;
72335;SDS011;62171;48.446;8.834;2022-09-09T07:12:54;1.58;;;1.02;;
72335;SDS011;62171;48.446;8.834;2022-09-09T07:15:20;3.53;;;1.23;;
72335;SDS011;62171;48.446;8.834;2022-09-09T07:17:46;3.78;;;1.42;;
72335;SDS011;62171;48.446;8.834;2022-09-09T07:20:12;18.85;;;9.10;;
72335;SDS011;62171;48.446;8.834;2022-09-09T07:22:38;10.65;;;4.88;;
72335;SDS011;62171;48.446;8.834;2022-09-09T07:25:03;3.88;;;1.83;;
72335;SDS011;62171;48.446;8.834;2022-09-09T07:27:29;2.22;;;1.25;;
72335;SDS011;62171;48.446;8.834;2022-09-09T07:29:55;2.25;;;1.17;;
72335;SDS011;62171;48.446;8.834;2022-09-09T07:32:20;5.50;;;1.15;;
72335;SDS011;62171;48.446;8.834;2022-09-09T07:34:46;3.10;;;1.10;;
72335;SDS011;62171;48.446;8.834;2022-09-09T07:37:12;4.75;;;1.40;;
72335;SDS011;62171;48.446;8.834;2022-09-09T07:39:38;1.23;;;1.00;;
72335;SDS011;62171;48.446;8.834;2022-09-09T07:42:04;3.30;;;1.05;;
72335;SDS011;62171;48.446;8.834;2022-09-09T07:44:30;3.70;;;1.00;;
72335;SDS011;62171;48.446;8.834;2022-09-09T07:46:59;2.13;;;0.90;;
72335;SDS011;62171;48.446;8.834;2022-09-09T07:49:25;1.48;;;0.95;;
72335;SDS011;62171;48.446;8.834;2022-09-09T07:51:50;3.15;;;1.30;;
72335;SDS011;62171;48.446;8.834;2022-09-09T07:54:16;1.80;;;0.90;;
72335;SDS011;62171;48.446;8.834;2022-09-09T07:56:45;1.40;;;0.90;;
72335;SDS011;62171;48.446;8.834;2022-09-09T07:59:11;1.33;;;0.90;;
72335;SDS011;62171;48.446;8.834;2022-09-09T08:01:41;2.35;;;1.10;;
72335;SDS011;62171;48.446;8.834;2022-09-09T08:04:17;4.05;;;1.10;;
72335;SDS011;62171;48.446;8.834;2022-09-09T08:06:49;1.08;;;0.70;;
72335;SDS011;62171;48.446;8.834;2022-09-09T08:09:17;3.55;;;1.05;;
72335;SDS011;62171;48.446;8.834;2022-09-09T08:11:43;2.00;;;1.08;;
72335;SDS011;62171;48.446;8.834;2022-09-09T08:14:09;2.90;;;1.02;;
72335;SDS011;62171;48.446;8.834;2022-09-09T08:16:40;4.05;;;1.00;;
72335;SDS011;62171;48.446;8.834;2022-09-09T08:19:07;1.02;;;0.70;;
72335;SDS011;62171;48.446;8.834;2022-09-09T08:21:34;1.90;;;0.80;;
72335;SDS011;62171;48.446;8.834;2022-09-09T08:24:02;6.53;;;1.90;;
72335;SDS011;62171;48.446;8.834;2022-09-09T08:26:31;2.83;;;0.70;;
72335;SDS011;62171;48.446;8.834;2022-09-09T08:28:59;1.98;;;0.90;;
72335;SDS011;62171;48.446;8.834;2022-09-09T08:31:30;3.03;;;0.90;;
72335;SDS011;62171;48.446;8.834;2022-09-09T08:33:58;1.20;;;0.80;;
72335;SDS011;62171;48.446;8.834;2022-09-09T08:36:26;8.95;;;1.23;;
72335;SDS011;62171;48.446;8.834;2022-09-09T08:38:55;2.03;;;0.60;;
72335;SDS011;62171;48.446;8.834;2022-09-09T08:55:37;1.23;;;0.70;;
72335;SDS011;62171;48.446;8.834;2022-09-09T08:58:17;2.22;;;0.85;;
72335;SDS011;62171;48.446;8.834;2022-09-09T09:08:47;3.25;;;0.60;;
72335;SDS011;62171;48.446;8.834;2022-09-09T09:11:39;4.82;;;0.88;;
72335;SDS011;62171;48.446;8.834;2022-09-09T09:16:48;1.33;;;0.70;;
72335;SDS011;62171;48.446;8.834;2022-09-09T09:19:16;4.72;;;0.90;;
72335;SDS011;62171;48.446;8.834;2022-09-09T09:24:40;1.73;;;0.70;;
72335;SDS011;62171;48.446;8.834;2022-09-09T09:27:16;4.07;;;0.80;;
72335;SDS011;62171;48.446;8.834;2022-09-09T09:29:47;2.72;;;0.75;;
72335;SDS011;62171;48.446;8.834;2022-09-09T09:32:16;4.35;;;1.30;;
72335;SDS011;62171;48.446;8.834;2022-09-09T09:34:55;3.70;;;0.70;;
72335;SDS011;62171;48.446;8.834;2022-09-09T09:37:32;0.93;;;0.60;;
72335;SDS011;62171;48.446;8.834;2022-09-09T09:40:12;7.25;;;1.35;;
72335;SDS011;62171;48.446;8.834;2022-09-09T09:43:01;1.60;;;0.82;;
72335;SDS011;62171;48.446;8.834;2022-09-09T09:45:32;2.30;;;0.70;;
72335;SDS011;62171;48.446;8.834;2022-09-09T09:48:03;1.88;;;0.63;;
72335;SDS011;62171;48.446;8.834;2022-09-09T09:50:30;3.83;;;0.80;;
72335;SDS011;62171;48.446;8.834;2022-09-09T09:52:57;2.50;;;0.73;;
72335;SDS011;62171;48.446;8.834;2022-09-09T09:58:00;2.85;;;0.70;;
72335;SDS011;62171;48.446;8.834;2022-09-09T10:00:27;1.10;;;0.60;;
72335;SDS011;62171;48.446;8.834;2022-09-09T10:02:52;5.90;;;0.80;;
72335;SDS011;62171;48.446;8.834;2022-09-09T10:05:22;1.35;;;0.77;;
72335;SDS011;62171;48.446;8.834;2022-09-09T10:08:09;3.53;;;0.75;;
72335;SDS011;62171;48.446;8.834;2022-09-09T10:19:38;3.00;;;0.80;;
72335;SDS011;62171;48.446;8.834;2022-09-09T10:30:23;4.82;;;0.85;;
72335;SDS011;62171;48.446;8.834;2022-09-09T10:33:08;1.80;;;0.70;;
72335;SDS011;62171;48.446;8.834;2022-09-09T10:35:39;2.33;;;0.70;;
72335;SDS011;62171;48.446;8.834;2022-09-09T10:46:10;2.05;;;0.70;;
72335;SDS011;62171;48.446;8.834;2022-09-09T10:48:43;2.58;;;0.73;;
72335;SDS011;62171;48.446;8.834;2022-09-09T10:54:09;2.28;;;0.80;;
72335;SDS011;62171;48.446;8.834;2022-09-09T10:56:38;2.28;;;0.60;;
72335;SDS011;62171;48.446;8.834;2022-09-09T11:01:49;2.47;;;0.77;;
72335;SDS011;62171;48.446;8.834;2022-09-09T11:04:25;4.38;;;0.73;;
72335;SDS011;62171;48.446;8.834;2022-09-09T11:06:57;2.00;;;0.40;;
72335;SDS011;62171;48.446;8.834;2022-09-09T11:09:26;3.15;;;0.60;;
72335;SDS011;62171;48.446;8.834;2022-09-09T11:11:56;1.38;;;0.47;;
72335;SDS011;62171;48.446;8.834;2022-09-09T11:14:31;1.08;;;0.55;;
72335;SDS011;62171;48.446;8.834;2022-09-09T11:17:48;0.93;;;0.40;;
72335;SDS011;62171;48.446;8.834;2022-09-09T11:20:06;0.98;;;0.35;;
72335;SDS011;62171;48.446;8.834;2022-09-09T11:22:37;2.38;;;0.75;;
72335;SDS011;62171;48.446;8.834;2022-09-09T11:25:16;1.30;;;0.40;;
72335;SDS011;62171;48.446;8.834;2022-09-09T11:33:37;1.85;;;0.50;;
72335;SDS011;62171;48.446;8.834;2022-09-09T11:42:05;1.85;;;0.60;;
72335;SDS011;62171;48.446;8.834;2022-09-09T11:44:51;1.45;;;0.50;;
72335;SDS011;62171;48.446;8.834;2022-09-09T11:49:54;0.70;;;0.50;;
72335;SDS011;62171;48.446;8.834;2022-09-09T11:52:22;1.38;;;0.60;;
72335;SDS011;62171;48.446;8.834;2022-09-09T11:54:48;1.65;;;0.60;;
72335;SDS011;62171;48.446;8.834;2022-09-09T11:57:25;2.00;;;0.60;;
72335;SDS011;62171;48.446;8.834;2022-09-09T11:59:55;2.38;;;0.68;;
72335;SDS011;62171;48.446;8.834;2022-09-09T12:02:24;1.67;;;0.68;;
72335;SDS011;62171;48.446;8.834;2022-09-09T12:04:59;3.35;;;0.70;;
72335;SDS011;62171;48.446;8.834;2022-09-09T12:12:50;2.67;;;0.80;;
72335;SDS011;62171;48.446;8.834;2022-09-09T12:20:13;0.75;;;0.43;;
72335;SDS011;62171;48.446;8.834;2022-09-09T12:22:47;1.70;;;0.70;;
72335;SDS011;62171;48.446;8.834;2022-09-09T12:28:21;1.48;;;0.50;;
72335;SDS011;62171;48.446;8.834;2022-09-09T12:30:56;2.20;;;0.50;;
72335;SDS011;62171;48.446;8.834;2022-09-09T12:33:36;2.85;;;0.63;;
72335;SDS011;62171;48.446;8.834;2022-09-09T12:36:08;1.67;;;0.50;;
72335;SDS011;62171;48.446;8.834;2022-09-09T12:38:38;1.15;;;0.60;;
72335;SDS011;62171;48.446;8.834;2022-09-09T12:41:06;1.05;;;0.52;;
72335;SDS011;62171;48.446;8.834;2022-09-09T12:43:44;2.45;;;0.60;;
72335;SDS011;62171;48.446;8.834;2022-09-09T12:46:11;1.40;;;0.60;;
72335;SDS011;62171;48.446;8.834;2022-09-09T12:51:30;2.40;;;0.50;;
72335;SDS011;62171;48.446;8.834;2022-09-09T12:53:58;0.90;;;0.47;;
72335;SDS011;62171;48.446;8.834;2022-09-09T12:56:25;4.20;;;0.70;;
72335;SDS011;62171;48.446;8.834;2022-09-09T12:58:54;3.10;;;0.75;;
72335;SDS011;62171;48.446;8.834;2022-09-09T13:03:57;3.22;;;0.52;;
72335;SDS011;62171;48.446;8.834;2022-09-09T13:08:49;2.95;;;0.70;;
72335;SDS011;62171;48.446;8.834;2022-09-09T13:11:20;2.20;;;0.60;;
72335;SDS011;62171;48.446;8.834;2022-09-09T13:13:51;1.73;;;0.60;;
72335;SDS011;62171;48.446;8.834;2022-09-09T13:16:40;3.30;;;0.80;;
72335;SDS011;62171;48.446;8.834;2022-09-09T13:19:08;3.15;;;0.70;;
72335;SDS011;62171;48.446;8.834;2022-09-09T13:21:39;2.83;;;0.63;;
72335;SDS011;62171;48.446;8.834;2022-09-09T13:24:05;3.17;;;0.60;;
72335;SDS011;62171;48.446;8.834;2022-09-09T13:26:53;2.58;;;0.68;;
72335;SDS011;62171;48.446;8.834;2022-09-09T13:29:21;1.08;;;0.40;;
72335;SDS011;62171;48.446;8.834;2022-09-09T13:31:53;2.30;;;0.43;;
72335;SDS011;62171;48.446;8.834;2022-09-09T13:37:01;2.80;;;0.55;;
72335;SDS011;62171;48.446;8.834;2022-09-09T13:39:30;2.35;;;0.57;;
72335;SDS011;62171;48.446;8.834;2022-09-09T13:41:58;2.05;;;0.60;;
72335;SDS011;62171;48.446;8.834;2022-09-09T13:44:29;1.35;;;0.52;;
72335;SDS011;62171;48.446;8.834;2022-09-09T13:47:05;1.35;;;0.40;;
72335;SDS011;62171;48.446;8.834;2022-09-09T13:49:42;1.80;;;0.60;;
72335;SDS011;62171;48.446;8.834;2022-09-09T13:52:11;2.50;;;0.50;;
72335;SDS011;62171;48.446;8.834;2022-09-09T13:54:38;1.58;;;0.60;;
72335;SDS011;62171;48.446;8.834;2022-09-09T13:57:04;1.08;;;0.50;;
72335;SDS011;62171;48.446;8.834;2022-09-09T13:59:30;3.83;;;0.63;;
72335;SDS011;62171;48.446;8.834;2022-09-09T14:01:56;1.63;;;0.47;;
72335;SDS011;62171;48.446;8.834;2022-09-09T14:04:22;2.15;;;0.60;;
72335;SDS011;62171;48.446;8.834;2022-09-09T14:06:49;2.05;;;0.60;;
72335;SDS011;62171;48.446;8.834;2022-09-09T14:09:15;0.95;;;0.40;;
72335;SDS011;62171;48.446;8.834;2022-09-09T14:11:42;2.03;;;0.55;;
72335;SDS011;62171;48.446;8.834;2022-09-09T14:14:09;1.50;;;0.32;;
72335;SDS011;62171;48.446;8.834;2022-09-09T14:16:34;1.02;;;0.45;;
72335;SDS011;62171;48.446;8.834;2022-09-09T14:19:00;2.50;;;0.60;;
72335;SDS011;62171;48.446;8.834;2022-09-09T14:21:26;1.92;;;0.50;;
72335;SDS011;62171;48.446;8.834;2022-09-09T14:23:52;1.30;;;0.43;;
72335;SDS011;62171;48.446;8.834;2022-09-09T14:26:18;1.25;;;0.47;;
72335;SDS011;62171;48.446;8.834;2022-09-09T14:28:47;2.38;;;0.68;;
72335;SDS011;62171;48.446;8.834;2022-09-09T14:31:12;2.53;;;0.60;;
72335;SDS011;62171;48.446;8.834;2022-09-09T14:33:38;1.75;;;0.70;;
72335;SDS011;62171;48.446;8.834;2022-09-09T14:36:04;2.58;;;0.73;;
72335;SDS011;62171;48.446;8.834;2022-09-09T14:38:33;1.27;;;0.50;;
72335;SDS011;62171;48.446;8.834;2022-09-09T14:41:04;1.75;;;0.60;;
72335;SDS011;62171;48.446;8.834;2022-09-09T14:43:35;2.15;;;0.63;;
72335;SDS011;62171;48.446;8.834;2022-09-09T14:46:10;3.25;;;0.57;;
72335;SDS011;62171;48.446;8.834;2022-09-09T14:48:37;1.38;;;0.50;;
72335;SDS011;62171;48.446;8.834;2022-09-09T14:51:09;2.75;;;0.70;;
72335;SDS011;62171;48.446;8.834;2022-09-09T14:53:36;1.75;;;0.40;;
72335;SDS011;62171;48.446;8.834;2022-09-09T14:56:06;1.50;;;0.60;;
72335;SDS011;62171;48.446;8.834;2022-09-09T14:58:33;1.67;;;0.60;;
72335;SDS011;62171;48.446;8.834;2022-09-09T15:01:07;3.25;;;0.57;;
72335;SDS011;62171;48.446;8.834;2022-09-09T15:03:36;1.35;;;0.40;;
72335;SDS011;62171;48.446;8.834;2022-09-09T15:06:08;1.13;;;0.47;;
72335;SDS011;62171;48.446;8.834;2022-09-09T15:08:36;2.28;;;0.60;;
72335;SDS011;62171;48.446;8.834;2022-09-09T15:11:03;1.30;;;0.52;;
72335;SDS011;62171;48.446;8.834;2022-09-09T15:13:29;2.20;;;0.60;;
72335;SDS011;62171;48.446;8.834;2022-09-09T15:15:55;2.90;;;0.70;;
72335;SDS011;62171;48.446;8.834;2022-09-09T15:18:21;2.78;;;0.60;;
72335;SDS011;62171;48.446;8.834;2022-09-09T15:20:46;1.25;;;0.40;;
72335;SDS011;62171;48.446;8.834;2022-09-09T15:23:12;1.15;;;0.40;;
72335;SDS011;62171;48.446;8.834;2022-09-09T15:25:49;2.42;;;0.38;;
72335;SDS011;62171;48.446;8.834;2022-09-09T15:28:15;2.40;;;0.40;;
72335;SDS011;62171;48.446;8.834;2022-09-09T15:30:41;1.10;;;0.40;;
72335;SDS011;62171;48.446;8.834;2022-09-09T15:33:09;2.97;;;0.50;;
72335;SDS011;62171;48.446;8.834;2022-09-09T15:35:34;0.47;;;0.28;;
72335;SDS011;62171;48.446;8.834;2022-09-09T15:38:01;0.87;;;0.30;;
72335;SDS011;62171;48.446;8.834;2022-09-09T15:40:29;0.65;;;0.38;;
72335;SDS011;62171;48.446;8.834;2022-09-09T15:42:57;1.77;;;0.40;;
72335;SDS011;62171;48.446;8.834;2022-09-09T15:45:22;1.00;;;0.30;;
72335;SDS011;62171;48.446;8.834;2022-09-09T15:47:48;0.75;;;0.30;;
72335;SDS011;62171;48.446;8.834;2022-09-09T15:50:14;1.73;;;0.43;;
72335;SDS011;62171;48.446;8.834;2022-09-09T15:52:39;0.75;;;0.40;;
72335;SDS011;62171;48.446;8.834;2022-09-09T15:55:04;0.70;;;0.30;;
72335;SDS011;62171;48.446;8.834;2022-09-09T15:57:30;0.80;;;0.30;;
72335;SDS011;62171;48.446;8.834;2022-09-09T15:59:56;6.72;;;4.10;;
72335;SDS011;62171;48.446;8.834;2022-09-09T16:02:22;1.30;;;0.45;;
72335;SDS011;62171;48.446;8.834;2022-09-09T16:04:47;1.77;;;0.50;;
72335;SDS011;62171;48.446;8.834;2022-09-09T16:07:12;1.60;;;0.50;;
72335;SDS011;62171;48.446;8.834;2022-09-09T16:09:38;1.27;;;0.50;;
72335;SDS011;62171;48.446;8.834;2022-09-09T16:12:05;2.03;;;0.63;;
72335;SDS011;62171;48.446;8.834;2022-09-09T16:14:38;0.40;;;0.30;;
72335;SDS011;62171;48.446;8.834;2022-09-09T16:17:03;0.43;;;0.30;;
72335;SDS011;62171;48.446;8.834;2022-09-09T16:19:30;2.67;;;0.70;;
72335;SDS011;62171;48.446;8.834;2022-09-09T16:21:56;0.77;;;0.40;;
72335;SDS011;62171;48.446;8.834;2022-09-09T16:24:22;0.85;;;0.30;;
72335;SDS011;62171;48.446;8.834;2022-09-09T16:26:49;1.13;;;0.60;;
72335;SDS011;62171;48.446;8.834;2022-09-09T16:29:16;0.73;;;0.47;;
72335;SDS011;62171;48.446;8.834;2022-09-09T16:31:43;0.63;;;0.40;;
72335;SDS011;62171;48.446;8.834;2022-09-09T16:34:09;2.70;;;0.52;;
72335;SDS011;62171;48.446;8.834;2022-09-09T16:36:36;1.60;;;0.50;;
72335;SDS011;62171;48.446;8.834;2022-09-09T16:39:05;0.40;;;0.30;;
72335;SDS011;62171;48.446;8.834;2022-09-09T16:41:34;4.10;;;0.40;;
72335;SDS011;62171;48.446;8.834;2022-09-09T16:44:01;1.13;;;0.43;;
72335;SDS011;62171;48.446;8.834;2022-09-09T16:46:28;0.95;;;0.40;;
72335;SDS011;62171;48.446;8.834;2022-09-09T16:48:58;2.50;;;0.68;;
72335;SDS011;62171;48.446;8.834;2022-09-09T16:51:29;1.75;;;0.52;;
72335;SDS011;62171;48.446;8.834;2022-09-09T16:53:57;0.40;;;0.30;;
72335;SDS011;62171;48.446;8.834;2022-09-09T16:56:25;1.75;;;0.60;;
72335;SDS011;62171;48.446;8.834;2022-09-09T16:58:55;1.00;;;0.40;;
72335;SDS011;62171;48.446;8.834;2022-09-09T17:03:56;2.92;;;0.50;;
72335;SDS011;62171;48.446;8.834;2022-09-09T17:06:22;2.67;;;0.60;;
72335;SDS011;62171;48.446;8.834;2022-09-09T17:08:53;1.88;;;0.40;;
72335;SDS011;62171;48.446;8.834;2022-09-09T17:11:22;0.98;;;0.40;;
72335;SDS011;62171;48.446;8.834;2022-09-09T17:13:49;0.57;;;0.40;;
72335;SDS011;62171;48.446;8.834;2022-09-09T17:16:17;1.17;;;0.50;;
72335;SDS011;62171;48.446;8.834;2022-09-09T17:18:45;1.45;;;0.32;;
72335;SDS011;62171;48.446;8.834;2022-09-09T17:21:15;0.80;;;0.30;;
72335;SDS011;62171;48.446;8.834;2022-09-09T17:23:43;1.05;;;0.30;;
72335;SDS011;62171;48.446;8.834;2022-09-09T17:26:11;2.80;;;0.47;;
72335;SDS011;62171;48.446;8.834;2022-09-09T17:28:38;2.05;;;0.50;;
72335;SDS011;62171;48.446;8.834;2022-09-09T17:31:08;2.20;;;0.40;;
72335;SDS011;62171;48.446;8.834;2022-09-09T17:33:37;1.02;;;0.40;;
72335;SDS011;62171;48.446;8.834;2022-09-09T17:36:08;1.60;;;0.40;;